Time;durP1;ratioP1;P1;durP2;ratioP2;P2;SDS_P1;SDS_P2;PMS_P1;PMS_P2;Temp;Humidity;BMP_temperature;BMP_pressure;BME280_temperature;BME280_humidity;BME280_pressure;Samples;Min_cycle;Max_cycle;Signal;HPM_P1;HPM_P2
2022/10/23 00:00:27;;;;;;;1.10;0.80;;;10.40;99.90;;;;;;4804352;29;20081;-84
2022/10/23 00:02:53;;;;;;;1.00;0.60;;;10.40;99.90;;;;;;4828514;29;20071;-84
2022/10/23 00:05:20;;;;;;;1.20;0.73;;;10.40;99.90;;;;;;4843047;29;20048;-87
2022/10/23 00:07:54;;;;;;;0.70;0.60;;;10.40;99.90;;;;;;4842921;29;20053;-85
2022/10/23 00:10:21;;;;;;;0.68;0.68;;;10.40;99.90;;;;;;4843205;29;20098;-88
2022/10/23 00:12:48;;;;;;;1.90;0.80;;;10.40;99.90;;;;;;4808549;29;20069;-84
2022/10/23 00:15:16;;;;;;;0.98;0.32;;;10.40;99.90;;;;;;4840878;29;20083;-85
2022/10/23 00:17:42;;;;;;;0.60;0.43;;;10.40;99.90;;;;;;4827664;29;20049;-84
2022/10/23 00:20:09;;;;;;;2.00;0.50;;;10.40;99.90;;;;;;4828282;29;20061;-84
2022/10/23 00:22:35;;;;;;;1.08;0.52;;;10.40;99.90;;;;;;4842656;29;20102;-84
2022/10/23 00:25:00;;;;;;;0.40;0.40;;;10.40;99.90;;;;;;4841736;29;20049;-84
2022/10/23 00:27:26;;;;;;;0.93;0.50;;;10.40;99.90;;;;;;4842562;29;20366;-84
2022/10/23 00:29:52;;;;;;;0.67;0.60;;;10.30;99.90;;;;;;4806616;29;20077;-84
2022/10/23 00:32:17;;;;;;;0.67;0.67;;;10.30;99.90;;;;;;4826281;29;20041;-83
2022/10/23 00:34:43;;;;;;;1.77;0.70;;;10.30;99.90;;;;;;4811961;29;20210;-84
2022/10/23 00:37:09;;;;;;;0.43;0.43;;;10.30;99.90;;;;;;4827336;29;20115;-84
2022/10/23 00:39:34;;;;;;;0.70;0.70;;;10.30;99.90;;;;;;4855830;29;20050;-84
2022/10/23 00:42:00;;;;;;;1.80;0.60;;;10.20;99.90;;;;;;4802430;29;20548;-84
2022/10/23 00:44:29;;;;;;;1.73;0.53;;;10.20;99.90;;;;;;4827512;29;20081;-88
2022/10/23 00:46:56;;;;;;;1.17;1.08;;;10.20;99.90;;;;;;4827185;29;20045;-85
2022/10/23 00:49:22;;;;;;;0.60;0.60;;;10.20;99.90;;;;;;4827855;29;20042;-84
2022/10/23 00:52:00;;;;;;;0.93;0.90;;;10.20;99.90;;;;;;4842043;29;20053;-84
2022/10/23 00:54:31;;;;;;;2.80;0.90;;;10.20;99.90;;;;;;4827245;29;20561;-88
2022/10/23 00:57:00;;;;;;;2.70;1.20;;;10.20;99.90;;;;;;4842601;29;20057;-84
2022/10/23 00:59:26;;;;;;;0.75;0.75;;;10.20;99.90;;;;;;4841708;29;20041;-84
2022/10/23 01:01:52;;;;;;;1.85;0.60;;;10.10;99.90;;;;;;4809691;29;20049;-84
2022/10/23 01:04:19;;;;;;;0.40;0.40;;;10.10;99.90;;;;;;4803556;29;20544;-84
2022/10/23 01:07:13;;;;;;;1.15;0.70;;;10.10;99.90;;;;;;4826759;29;20077;-84
2022/10/23 01:09:46;;;;;;;0.60;0.50;;;10.10;99.90;;;;;;4842329;29;20434;-84
2022/10/23 01:12:11;;;;;;;1.20;0.50;;;10.10;99.90;;;;;;4826971;29;20058;-85
2022/10/23 01:15:05;;;;;;;0.50;0.50;;;10.10;99.90;;;;;;4849698;29;20052;-84
2022/10/23 01:17:41;;;;;;;1.33;0.80;;;10.10;99.90;;;;;;4842255;29;20067;-88
2022/10/23 01:20:27;;;;;;;0.60;0.60;;;10.10;99.90;;;;;;4850729;29;20524;-84
2022/10/23 01:23:00;;;;;;;1.77;0.95;;;10.20;99.90;;;;;;4842123;29;20371;-84
2022/10/23 01:25:48;;;;;;;1.13;0.93;;;10.20;99.90;;;;;;4827191;29;20045;-84
2022/10/23 01:28:43;;;;;;;0.75;0.50;;;10.20;99.90;;;;;;4842382;29;20049;-84
2022/10/23 01:31:15;;;;;;;1.85;0.65;;;10.20;99.90;;;;;;4823231;29;20144;-84
2022/10/23 01:33:47;;;;;;;0.63;0.40;;;10.20;99.90;;;;;;4826812;29;20050;-84
2022/10/23 01:36:15;;;;;;;0.93;0.77;;;10.20;99.90;;;;;;4842221;29;20053;-84
2022/10/23 01:38:51;;;;;;;1.25;0.98;;;10.10;99.90;;;;;;4825907;29;20049;-84
2022/10/23 01:41:26;;;;;;;0.57;0.43;;;10.20;99.90;;;;;;4842448;29;20053;-84
2022/10/23 01:44:20;;;;;;;1.38;0.90;;;10.10;99.90;;;;;;4841779;29;20410;-84
2022/10/23 01:46:49;;;;;;;0.63;0.60;;;10.10;99.90;;;;;;4830209;29;20057;-84
2022/10/23 01:49:16;;;;;;;1.58;0.60;;;10.10;99.90;;;;;;4830180;29;20049;-84
2022/10/23 01:51:46;;;;;;;0.95;0.68;;;10.20;99.90;;;;;;4844823;29;20057;-85
2022/10/23 01:54:15;;;;;;;0.60;0.50;;;10.10;99.90;;;;;;4829846;29;20497;-84
2022/10/23 01:56:44;;;;;;;0.65;0.65;;;10.10;99.90;;;;;;4838762;29;20057;-84
2022/10/23 01:59:16;;;;;;;0.77;0.65;;;10.10;99.90;;;;;;4827729;29;20437;-83
2022/10/23 02:01:47;;;;;;;0.40;0.40;;;10.00;99.90;;;;;;4845146;29;20430;-84
2022/10/23 02:04:17;;;;;;;1.08;0.57;;;10.00;99.90;;;;;;4845243;29;20124;-84
2022/10/23 02:06:43;;;;;;;0.65;0.65;;;10.00;99.90;;;;;;4845171;29;20123;-84
2022/10/23 02:09:08;;;;;;;0.40;0.40;;;10.00;99.90;;;;;;4812496;29;20455;-84
2022/10/23 02:11:42;;;;;;;0.33;0.33;;;10.00;99.90;;;;;;4813997;29;20306;-86
2022/10/23 02:14:19;;;;;;;0.77;0.55;;;10.10;99.90;;;;;;4843728;29;20117;-84
2022/10/23 02:16:48;;;;;;;0.65;0.50;;;10.00;99.90;;;;;;4843146;29;20053;-84
2022/10/23 02:19:36;;;;;;;0.75;0.70;;;10.00;99.90;;;;;;4829955;29;20053;-84
2022/10/23 02:22:20;;;;;;;0.40;0.40;;;10.00;99.90;;;;;;4844856;29;20061;-84
2022/10/23 02:24:45;;;;;;;2.33;0.70;;;10.00;99.90;;;;;;4844428;29;20044;-84
2022/10/23 02:27:15;;;;;;;0.60;0.53;;;10.00;99.90;;;;;;4829796;29;20045;-84
2022/10/23 02:29:55;;;;;;;0.85;0.50;;;10.00;99.90;;;;;;4844367;29;20125;-84
2022/10/23 02:32:25;;;;;;;0.98;0.60;;;10.00;99.90;;;;;;4829752;29;20136;-84
2022/10/23 02:34:51;;;;;;;1.75;0.57;;;10.00;99.90;;;;;;4844112;29;20057;-85
2022/10/23 02:37:17;;;;;;;0.50;0.50;;;10.00;99.90;;;;;;4844159;29;20058;-84
2022/10/23 02:39:43;;;;;;;2.53;1.10;;;10.00;99.90;;;;;;4844444;29;20046;-85
2022/10/23 02:42:30;;;;;;;2.47;1.25;;;10.00;99.90;;;;;;4844658;29;20481;-83
2022/10/23 02:45:08;;;;;;;;;;;10.00;99.90;;;;;;4829126;29;20485;-84
2022/10/23 02:47:34;;;;;;;1.37;0.77;;;10.00;99.90;;;;;;4829499;29;19971;-84
2022/10/23 02:50:14;;;;;;;1.67;0.90;;;10.10;99.90;;;;;;4844397;29;20337;-84
2022/10/23 02:53:03;;;;;;;0.57;0.57;;;10.10;99.90;;;;;;4844797;29;20056;-84
2022/10/23 02:56:08;;;;;;;0.82;0.60;;;10.10;99.90;;;;;;4840652;29;20390;-84
2022/10/23 02:58:45;;;;;;;1.10;0.65;;;10.10;99.90;;;;;;4829352;29;20046;-84
2022/10/23 03:01:16;;;;;;;0.40;0.30;;;10.10;99.90;;;;;;4829271;29;20041;-84
2022/10/23 03:03:55;;;;;;;0.95;0.60;;;10.10;99.90;;;;;;4844404;29;20045;-84
2022/10/23 03:06:22;;;;;;;0.80;0.52;;;10.10;99.90;;;;;;4829049;29;20485;-84
2022/10/23 03:08:52;;;;;;;0.75;0.63;;;10.10;99.90;;;;;;4804158;29;20054;-84
2022/10/23 03:11:18;;;;;;;0.70;0.60;;;10.10;99.90;;;;;;4844247;29;20438;-84
2022/10/23 03:13:44;;;;;;;0.90;0.57;;;10.10;99.90;;;;;;4843921;29;20080;-88
2022/10/23 03:16:10;;;;;;;0.75;0.60;;;10.10;99.90;;;;;;4844051;29;20077;-84
2022/10/23 03:18:36;;;;;;;0.80;0.67;;;10.10;99.90;;;;;;4844272;29;20548;-84
2022/10/23 03:21:01;;;;;;;0.83;0.70;;;10.00;99.90;;;;;;4828703;29;20474;-84
2022/10/23 03:23:27;;;;;;;1.00;0.80;;;10.00;99.90;;;;;;4844130;29;20106;-84
2022/10/23 03:25:54;;;;;;;1.40;0.77;;;9.90;99.90;;;;;;4841116;29;20038;-84
2022/10/23 03:28:20;;;;;;;1.17;0.65;;;9.90;99.90;;;;;;4844095;29;20075;-84
2022/10/23 03:30:46;;;;;;;0.70;0.70;;;10.00;99.90;;;;;;4828768;29;20493;-88
2022/10/23 03:33:15;;;;;;;1.10;0.80;;;10.00;99.90;;;;;;4828497;29;20089;-85
2022/10/23 03:35:40;;;;;;;0.95;0.85;;;10.00;99.90;;;;;;4841825;29;20423;-84
2022/10/23 03:38:06;;;;;;;0.60;0.60;;;9.90;99.90;;;;;;4827865;29;20133;-84
2022/10/23 03:40:32;;;;;;;1.83;1.50;;;10.00;99.90;;;;;;4843693;29;20045;-84
2022/10/23 03:42:57;;;;;;;0.57;0.57;;;9.90;99.90;;;;;;4828171;29;20057;-84
2022/10/23 03:45:23;;;;;;;0.87;0.63;;;9.90;99.90;;;;;;4840781;29;20045;-84
2022/10/23 03:47:50;;;;;;;2.70;1.47;;;9.90;99.90;;;;;;4793064;29;20043;-88
2022/10/23 03:50:17;;;;;;;1.35;0.68;;;9.90;99.90;;;;;;4805144;29;20057;-84
2022/10/23 03:52:43;;;;;;;0.73;0.73;;;9.90;99.90;;;;;;4828398;29;20128;-84
2022/10/23 03:55:09;;;;;;;0.50;0.50;;;9.80;99.90;;;;;;4827636;29;20056;-84
2022/10/23 03:57:35;;;;;;;1.30;0.73;;;9.80;99.90;;;;;;4843379;29;20045;-84
2022/10/23 04:00:00;;;;;;;0.93;0.83;;;9.80;99.90;;;;;;4827742;29;20322;-84
2022/10/23 04:02:26;;;;;;;0.70;0.70;;;9.80;99.90;;;;;;4828552;29;20132;-84
2022/10/23 04:04:52;;;;;;;2.27;0.87;;;9.80;99.90;;;;;;4842885;29;20504;-88
2022/10/23 04:07:18;;;;;;;0.95;0.60;;;9.80;99.90;;;;;;4827494;29;20477;-84
2022/10/23 04:09:44;;;;;;;1.47;0.80;;;9.80;99.90;;;;;;4843075;29;20050;-84
2022/10/23 04:12:09;;;;;;;1.30;0.90;;;9.80;99.90;;;;;;4827534;29;20492;-84
2022/10/23 04:14:35;;;;;;;0.53;0.53;;;9.70;99.90;;;;;;4798811;29;20049;-84
2022/10/23 04:17:01;;;;;;;1.87;1.00;;;9.70;99.90;;;;;;4827463;29;20796;-84
2022/10/23 04:19:26;;;;;;;1.73;1.63;;;9.70;99.90;;;;;;4812583;29;20052;-84
2022/10/23 04:21:52;;;;;;;2.27;1.00;;;9.70;99.90;;;;;;4842811;29;20046;-84
2022/10/23 04:24:18;;;;;;;2.03;0.97;;;9.70;99.90;;;;;;4827685;29;20409;-84
2022/10/23 04:26:43;;;;;;;4.90;0.70;;;9.80;99.90;;;;;;4812488;29;20048;-84
2022/10/23 04:29:09;;;;;;;0.80;0.70;;;9.80;99.90;;;;;;4842564;29;20053;-84
2022/10/23 04:31:38;;;;;;;0.97;0.80;;;9.80;99.90;;;;;;4842920;29;20045;-84
2022/10/23 04:34:03;;;;;;;1.55;0.70;;;9.80;99.90;;;;;;4809268;29;20498;-84
2022/10/23 04:36:29;;;;;;;1.47;1.00;;;9.90;99.90;;;;;;4827754;29;20048;-84
2022/10/23 04:38:55;;;;;;;0.87;0.50;;;9.90;99.90;;;;;;4827354;29;20064;-88
2022/10/23 04:41:20;;;;;;;1.90;0.93;;;9.90;99.90;;;;;;4827120;29;20177;-86
2022/10/23 04:43:46;;;;;;;1.53;0.80;;;9.90;99.90;;;;;;4840520;29;20045;-84
2022/10/23 04:46:12;;;;;;;0.93;0.73;;;10.30;99.90;;;;;;4826809;29;20094;-84
2022/10/23 04:48:37;;;;;;;1.27;0.77;;;9.80;99.90;;;;;;4842568;29;20056;-84
2022/10/23 04:51:05;;;;;;;1.90;0.93;;;9.80;99.90;;;;;;4827084;29;20049;-84
2022/10/23 04:53:31;;;;;;;2.40;1.15;;;9.70;99.90;;;;;;4842601;29;20061;-84
2022/10/23 04:55:58;;;;;;;0.77;0.77;;;9.70;99.90;;;;;;4827759;29;20386;-84
2022/10/23 04:58:25;;;;;;;1.05;0.70;;;9.70;99.90;;;;;;4785359;29;20054;-84
2022/10/23 05:00:51;;;;;;;1.40;0.75;;;9.70;99.90;;;;;;4842432;29;20049;-84
2022/10/23 05:03:19;;;;;;;2.42;0.80;;;9.70;99.90;;;;;;4841870;29;20052;-85
2022/10/23 05:05:45;;;;;;;0.90;0.52;;;9.70;99.90;;;;;;4827259;29;20100;-84
2022/10/23 05:08:11;;;;;;;0.98;0.73;;;9.70;99.90;;;;;;4842290;29;20045;-84
2022/10/23 05:10:37;;;;;;;1.33;0.88;;;9.70;99.90;;;;;;4806056;29;20546;-83
2022/10/23 05:13:04;;;;;;;2.03;0.52;;;9.60;99.90;;;;;;4826673;29;20132;-85
2022/10/23 05:15:30;;;;;;;2.22;0.75;;;9.60;99.90;;;;;;4842210;29;20041;-84
2022/10/23 05:18:01;;;;;;;0.65;0.60;;;9.60;99.90;;;;;;4842268;29;20572;-84
2022/10/23 05:20:31;;;;;;;0.85;0.60;;;9.60;99.90;;;;;;4829799;29;20049;-86
2022/10/23 05:22:59;;;;;;;0.63;0.47;;;9.60;99.90;;;;;;4860807;29;20045;-84
2022/10/23 05:25:25;;;;;;;1.20;0.80;;;9.60;99.90;;;;;;4845396;29;20056;-84
2022/10/23 05:27:51;;;;;;;2.40;0.50;;;9.70;99.90;;;;;;4801075;29;20041;-84
2022/10/23 05:30:17;;;;;;;1.67;1.58;;;9.60;99.90;;;;;;4830345;29;20057;-83
2022/10/23 05:32:43;;;;;;;2.43;0.97;;;9.60;99.90;;;;;;4830629;29;20049;-84
2022/10/23 05:35:14;;;;;;;3.17;1.80;;;9.60;99.90;;;;;;4830342;29;20045;-84
2022/10/23 05:37:44;;;;;;;0.60;0.52;;;9.60;99.90;;;;;;4830274;29;20069;-84
2022/10/23 05:40:10;;;;;;;0.65;0.65;;;9.60;99.90;;;;;;4843562;29;20128;-84
2022/10/23 05:42:36;;;;;;;1.27;0.70;;;9.60;99.90;;;;;;4809250;29;20042;-84
2022/10/23 05:45:01;;;;;;;1.50;0.80;;;9.60;99.90;;;;;;4830518;29;20481;-84
2022/10/23 05:47:28;;;;;;;0.80;0.80;;;9.60;99.90;;;;;;4829752;29;20098;-83
2022/10/23 05:49:53;;;;;;;0.70;0.70;;;9.50;99.90;;;;;;4830433;29;20123;-84
2022/10/23 05:52:19;;;;;;;0.50;0.50;;;9.50;99.90;;;;;;4845363;29;20140;-84
2022/10/23 05:54:45;;;;;;;1.50;0.70;;;9.50;99.90;;;;;;4845712;29;20082;-84
2022/10/23 05:57:11;;;;;;;1.30;1.20;;;9.50;99.90;;;;;;4829571;29;20465;-84
2022/10/23 05:59:36;;;;;;;1.50;0.83;;;9.50;99.90;;;;;;4829926;29;20508;-84
2022/10/23 06:02:02;;;;;;;1.33;0.60;;;9.50;99.90;;;;;;4829822;29;20044;-84
2022/10/23 06:04:28;;;;;;;0.77;0.73;;;9.50;99.90;;;;;;4800130;29;20049;-84
2022/10/23 06:06:53;;;;;;;0.50;0.50;;;9.50;99.90;;;;;;4829351;29;20045;-84
2022/10/23 06:09:19;;;;;;;1.17;0.87;;;9.40;99.90;;;;;;4829935;29;20049;-84
2022/10/23 06:11:45;;;;;;;1.13;1.03;;;9.50;99.90;;;;;;4814882;29;20109;-85
2022/10/23 06:14:11;;;;;;;1.25;1.05;;;9.40;99.90;;;;;;4844901;29;20056;-84
2022/10/23 06:16:37;;;;;;;1.10;0.93;;;9.40;99.90;;;;;;4806682;29;20050;-84
2022/10/23 06:19:02;;;;;;;1.20;0.80;;;9.40;99.90;;;;;;4814390;29;20081;-84
2022/10/23 06:21:28;;;;;;;0.67;0.50;;;9.40;99.90;;;;;;4829477;29;20106;-84
2022/10/23 06:23:54;;;;;;;1.03;0.60;;;9.40;99.90;;;;;;4814753;29;20081;-84
2022/10/23 06:26:20;;;;;;;1.10;0.60;;;9.40;99.90;;;;;;4828757;29;20080;-84
2022/10/23 06:28:45;;;;;;;1.50;0.70;;;9.30;99.90;;;;;;4801429;29;20132;-83
2022/10/23 06:31:14;;;;;;;0.70;0.70;;;9.40;99.90;;;;;;4827966;29;20048;-87
2022/10/23 06:33:40;;;;;;;0.82;0.47;;;9.40;99.90;;;;;;4844906;29;20428;-83
2022/10/23 06:36:09;;;;;;;0.98;0.80;;;9.40;99.90;;;;;;4844911;29;20071;-83
2022/10/23 06:38:38;;;;;;;1.50;0.85;;;9.40;99.90;;;;;;4828650;29;20156;-82
2022/10/23 06:41:06;;;;;;;2.08;0.90;;;9.40;99.90;;;;;;4814819;29;20045;-83
2022/10/23 06:43:32;;;;;;;0.60;0.45;;;9.40;99.90;;;;;;4844108;29;20265;-83
2022/10/23 06:46:03;;;;;;;1.33;0.60;;;9.40;99.90;;;;;;4844363;29;20560;-83
2022/10/23 06:48:29;;;;;;;0.68;0.52;;;9.40;99.90;;;;;;4828946;29;20049;-82
2022/10/23 06:50:55;;;;;;;2.25;1.08;;;9.40;99.90;;;;;;4828997;29;20076;-83
2022/10/23 06:53:23;;;;;;;0.97;0.70;;;9.40;99.90;;;;;;4828845;29;20106;-83
2022/10/23 06:55:50;;;;;;;0.57;0.57;;;9.40;99.90;;;;;;4802068;29;20080;-83
2022/10/23 06:58:16;;;;;;;0.70;0.70;;;9.50;99.90;;;;;;4843938;29;20082;-84
2022/10/23 07:00:43;;;;;;;1.90;0.83;;;9.50;99.90;;;;;;4828544;29;20045;-84
2022/10/23 07:03:09;;;;;;;0.68;0.40;;;9.50;99.90;;;;;;4829317;29;20286;-83
2022/10/23 07:05:35;;;;;;;1.30;0.52;;;9.50;99.90;;;;;;4843578;29;20045;-83
2022/10/23 07:08:03;;;;;;;0.95;0.70;;;9.50;99.90;;;;;;4844116;29;20140;-83
2022/10/23 07:10:28;;;;;;;0.50;0.45;;;9.60;99.90;;;;;;4843474;29;20056;-83
2022/10/23 07:12:59;;;;;;;1.17;0.83;;;9.60;99.90;;;;;;4829013;29;20046;-83
2022/10/23 07:15:26;;;;;;;1.20;0.50;;;9.60;99.90;;;;;;4843426;29;20053;-83
2022/10/23 07:17:52;;;;;;;0.82;0.60;;;9.70;99.90;;;;;;4843926;29;20053;-86
2022/10/23 07:20:18;;;;;;;0.88;0.70;;;9.70;99.90;;;;;;4814111;29;20084;-87
2022/10/23 07:22:49;;;;;;;0.50;0.50;;;9.70;99.90;;;;;;4844051;29;20489;-83
2022/10/23 07:25:15;;;;;;;1.48;0.60;;;9.80;99.90;;;;;;4828920;29;20106;-83
2022/10/23 07:27:40;;;;;;;1.73;0.70;;;9.80;99.90;;;;;;4827866;29;20041;-84
2022/10/23 07:30:06;;;;;;;1.90;0.50;;;9.90;99.90;;;;;;4794042;29;20057;-83
2022/10/23 07:32:32;;;;;;;2.17;0.82;;;9.90;99.90;;;;;;4787519;29;20456;-83
2022/10/23 07:34:58;;;;;;;0.70;0.50;;;10.00;99.90;;;;;;4827036;29;20133;-83
2022/10/23 07:37:23;;;;;;;0.50;0.30;;;10.00;99.90;;;;;;4827921;29;20117;-83
2022/10/23 07:39:50;;;;;;;2.70;0.50;;;10.00;99.90;;;;;;4819823;29;20049;-83
2022/10/23 07:42:15;;;;;;;0.77;0.50;;;10.10;99.90;;;;;;4808329;29;20049;-83
2022/10/23 07:44:41;;;;;;;1.60;0.70;;;10.10;99.90;;;;;;4810334;29;20392;-83
2022/10/23 07:47:07;;;;;;;0.77;0.40;;;10.10;99.90;;;;;;4824966;29;20097;-82
2022/10/23 07:49:32;;;;;;;0.47;0.47;;;10.20;99.90;;;;;;4812752;29;20077;-83
2022/10/23 07:51:58;;;;;;;0.80;0.60;;;10.20;99.90;;;;;;4786308;29;20480;-84
2022/10/23 07:54:24;;;;;;;0.70;0.50;;;10.20;99.90;;;;;;4809589;29;20089;-83
2022/10/23 07:56:49;;;;;;;0.50;0.43;;;10.30;99.90;;;;;;4828523;29;20037;-83
2022/10/23 07:59:15;;;;;;;1.23;0.67;;;10.30;99.90;;;;;;4828597;29;20128;-83
2022/10/23 08:01:42;;;;;;;0.40;0.40;;;10.40;99.90;;;;;;4827548;29;20053;-83
2022/10/23 08:04:09;;;;;;;0.63;0.55;;;10.40;99.90;;;;;;4827927;29;20042;-85
2022/10/23 08:06:35;;;;;;;0.68;0.57;;;10.50;99.90;;;;;;4799736;29;20164;-83
2022/10/23 08:09:01;;;;;;;0.68;0.40;;;10.50;99.90;;;;;;4813194;29;20114;-82
2022/10/23 08:11:29;;;;;;;0.97;0.43;;;10.60;99.90;;;;;;4827487;29;20509;-83
2022/10/23 08:13:56;;;;;;;0.77;0.38;;;10.70;99.90;;;;;;4842991;29;20057;-84
2022/10/23 08:16:22;;;;;;;;;;;10.70;99.90;;;;;;4810521;29;20049;-83
2022/10/23 08:18:48;;;;;;;0.85;0.50;;;10.70;99.90;;;;;;4842702;29;19928;-82
2022/10/23 08:21:15;;;;;;;1.35;0.60;;;10.80;99.90;;;;;;4827660;29;20460;-83
2022/10/23 08:23:41;;;;;;;0.70;0.60;;;10.80;99.90;;;;;;4842431;29;20434;-83
2022/10/23 08:26:07;;;;;;;1.33;0.98;;;10.90;99.90;;;;;;4827689;29;20045;-83
2022/10/23 08:28:33;;;;;;;1.23;0.57;;;10.90;99.90;;;;;;4827443;29;20053;-83
2022/10/23 08:31:07;;;;;;;0.40;0.40;;;10.90;99.90;;;;;;4813806;29;20052;-83
2022/10/23 08:33:32;;;;;;;1.05;0.70;;;11.00;99.90;;;;;;4828821;29;20085;-82
2022/10/23 08:35:58;;;;;;;0.60;0.60;;;11.00;99.90;;;;;;4829256;29;20095;-82
2022/10/23 08:38:24;;;;;;;0.80;0.70;;;11.10;99.90;;;;;;4843920;29;20061;-83
2022/10/23 08:40:50;;;;;;;0.90;0.53;;;11.20;99.90;;;;;;4828047;29;20045;-83
2022/10/23 08:43:32;;;;;;;1.63;0.83;;;11.20;99.90;;;;;;4844474;29;20565;-82
2022/10/23 08:46:03;;;;;;;0.75;0.70;;;11.30;99.90;;;;;;4843937;29;20049;-83
2022/10/23 08:48:42;;;;;;;0.60;0.60;;;11.30;99.90;;;;;;4828941;29;20053;-84
2022/10/23 08:51:47;;;;;;;0.82;0.55;;;11.40;99.90;;;;;;4843871;29;20452;-84
2022/10/23 08:54:36;;;;;;;1.23;0.63;;;11.40;99.90;;;;;;4828220;29;20205;-83
2022/10/23 08:57:14;;;;;;;0.77;0.70;;;11.50;99.90;;;;;;4840882;29;20101;-83
2022/10/23 08:59:46;;;;;;;0.55;0.50;;;11.60;99.90;;;;;;4842568;29;20500;-83
2022/10/23 09:02:15;;;;;;;0.85;0.70;;;11.60;99.90;;;;;;4842904;29;20049;-82
2022/10/23 09:04:43;;;;;;;0.20;0.20;;;11.70;99.90;;;;;;4842467;29;20042;-85
2022/10/23 09:07:17;;;;;;;0.40;0.40;;;11.70;99.90;;;;;;4842795;29;20041;-86
2022/10/23 09:09:45;;;;;;;0.52;0.30;;;11.80;99.90;;;;;;4827374;29;20064;-85
2022/10/23 09:12:19;;;;;;;0.50;0.50;;;11.90;99.90;;;;;;4826963;29;20137;-84
2022/10/23 09:15:21;;;;;;;0.52;0.50;;;11.90;99.90;;;;;;4837227;29;20393;-85
2022/10/23 09:17:53;;;;;;;0.57;0.55;;;12.00;99.90;;;;;;4833002;29;20060;-83
2022/10/23 09:20:23;;;;;;;0.80;0.60;;;12.10;99.90;;;;;;4859943;29;20049;-83
2022/10/23 09:22:58;;;;;;;0.70;0.70;;;12.10;99.90;;;;;;4843798;29;20540;-83
2022/10/23 09:25:25;;;;;;;0.50;0.50;;;12.20;99.90;;;;;;4828060;29;20056;-83
2022/10/23 09:27:57;;;;;;;1.08;0.60;;;12.30;99.90;;;;;;4841174;29;20797;-87
2022/10/23 09:30:25;;;;;;;0.65;0.65;;;12.40;99.90;;;;;;4840509;29;20102;-84
2022/10/23 09:32:51;;;;;;;0.43;0.43;;;12.50;99.90;;;;;;4843587;29;20084;-83
2022/10/23 09:35:23;;;;;;;1.23;0.60;;;12.60;99.90;;;;;;4827878;29;20093;-83
2022/10/23 09:37:52;;;;;;;1.30;0.60;;;12.60;99.90;;;;;;4841783;29;20128;-83
2022/10/23 09:40:29;;;;;;;0.70;0.70;;;12.70;99.90;;;;;;4840215;29;20552;-84
2022/10/23 09:43:02;;;;;;;0.95;0.43;;;12.80;99.90;;;;;;4834268;29;20094;-84
2022/10/23 09:45:33;;;;;;;0.50;0.50;;;12.90;99.90;;;;;;4862389;29;20060;-83
2022/10/23 09:48:17;;;;;;;0.70;0.60;;;13.00;99.90;;;;;;4854713;29;20129;-83
2022/10/23 09:50:48;;;;;;;0.77;0.40;;;13.00;99.90;;;;;;4843616;29;20045;-84
2022/10/23 09:53:21;;;;;;;0.40;0.30;;;13.10;99.90;;;;;;4843852;29;20045;-84
2022/10/23 09:55:54;;;;;;;0.52;0.43;;;13.10;99.90;;;;;;4875015;29;20061;-84
2022/10/23 09:58:35;;;;;;;1.40;0.75;;;13.20;99.90;;;;;;4844565;29;20046;-89
2022/10/23 10:01:02;;;;;;;0.22;0.22;;;13.30;99.90;;;;;;4841049;29;20454;-84
2022/10/23 10:03:27;;;;;;;;;;;13.40;99.90;;;;;;4845155;29;20405;-82
2022/10/23 10:05:56;;;;;;;0.32;0.32;;;13.40;99.90;;;;;;4852762;29;19923;-83
2022/10/23 10:08:36;;;;;;;0.73;0.70;;;13.50;99.90;;;;;;4838101;29;20181;-83
2022/10/23 10:11:16;;;;;;;0.82;0.57;;;13.60;99.90;;;;;;4872645;29;20496;-83
2022/10/23 10:14:08;;;;;;;1.25;0.55;;;13.60;99.90;;;;;;4848872;29;20060;-84
2022/10/23 10:16:57;;;;;;;1.08;0.40;;;13.80;99.90;;;;;;4829271;29;20105;-83
2022/10/23 10:19:40;;;;;;;0.32;0.32;;;13.90;99.90;;;;;;4832816;29;20049;-84
2022/10/23 10:22:09;;;;;;;0.65;0.57;;;14.00;99.90;;;;;;4834711;29;20081;-83
2022/10/23 10:24:48;;;;;;;0.63;0.50;;;14.10;99.90;;;;;;4832941;29;20490;-85
2022/10/23 10:27:40;;;;;;;0.38;0.32;;;14.20;99.90;;;;;;4847605;29;20046;-84
2022/10/23 10:30:17;;;;;;;1.45;0.52;;;14.30;99.90;;;;;;4846658;29;20136;-84
2022/10/23 10:32:56;;;;;;;0.80;0.47;;;14.30;99.90;;;;;;4847518;29;20045;-89
2022/10/23 10:35:45;;;;;;;0.30;0.30;;;14.40;99.90;;;;;;4841049;29;20132;-84
2022/10/23 10:38:33;;;;;;;0.73;0.68;;;14.50;99.90;;;;;;4831328;29;20093;-84
2022/10/23 10:41:17;;;;;;;1.67;0.40;;;14.60;99.90;;;;;;4846514;29;20064;-84
2022/10/23 10:43:56;;;;;;;0.63;0.50;;;14.60;99.90;;;;;;4831154;29;20053;-85
2022/10/23 10:46:40;;;;;;;0.35;0.35;;;14.60;99.90;;;;;;4831389;29;20081;-84
2022/10/23 10:49:41;;;;;;;0.90;0.30;;;14.60;99.90;;;;;;4830405;29;20050;-84
2022/10/23 10:52:36;;;;;;;0.55;0.30;;;14.60;99.90;;;;;;4830604;29;20085;-84
2022/10/23 10:55:14;;;;;;;1.15;0.35;;;14.50;99.90;;;;;;4830781;29;20449;-84
2022/10/23 10:57:54;;;;;;;0.40;0.40;;;14.50;99.90;;;;;;4846463;29;20492;-84
2022/10/23 11:00:22;;;;;;;0.68;0.50;;;14.50;99.90;;;;;;4831425;29;20065;-84
2022/10/23 11:03:11;;;;;;;0.93;0.50;;;14.50;99.90;;;;;;4846295;29;20050;-84
2022/10/23 11:05:43;;;;;;;0.30;0.30;;;14.50;99.90;;;;;;4832576;29;20049;-84
2022/10/23 11:08:08;;;;;;;3.40;0.40;;;14.50;99.90;;;;;;4832458;29;20072;-84
2022/10/23 11:10:35;;;;;;;0.60;0.40;;;14.60;99.90;;;;;;4830947;29;20524;-84
2022/10/23 11:13:01;;;;;;;0.70;0.35;;;14.60;99.90;;;;;;4816041;29;20049;-84
2022/10/23 11:15:29;;;;;;;;;;;14.60;99.90;;;;;;4831042;29;20049;-84
2022/10/23 11:17:59;;;;;;;0.50;0.50;;;14.60;99.90;;;;;;4829491;29;19946;-83
2022/10/23 11:20:38;;;;;;;0.30;0.30;;;14.60;99.90;;;;;;4844046;29;20128;-86
2022/10/23 11:23:26;;;;;;;0.73;0.43;;;14.60;99.90;;;;;;4829154;29;20041;-85
2022/10/23 11:25:57;;;;;;;0.30;0.30;;;14.60;99.90;;;;;;4829134;29;20557;-84
2022/10/23 11:28:32;;;;;;;0.55;0.43;;;14.70;99.90;;;;;;4828924;29;20512;-84
2022/10/23 11:31:07;;;;;;;0.95;0.75;;;14.70;99.90;;;;;;4832637;29;20414;-83
2022/10/23 11:33:51;;;;;;;0.93;0.77;;;14.60;99.90;;;;;;4845499;29;20057;-83
2022/10/23 11:36:19;;;;;;;1.40;0.47;;;14.60;99.90;;;;;;4837583;29;20049;-84
2022/10/23 11:38:50;;;;;;;0.43;0.20;;;14.60;99.90;;;;;;4846388;29;20063;-84
2022/10/23 11:41:21;;;;;;;0.20;0.20;;;14.60;99.90;;;;;;4837758;29;20068;-84
2022/10/23 11:43:49;;;;;;;0.55;0.30;;;14.60;99.90;;;;;;4845655;29;20053;-84
2022/10/23 11:46:27;;;;;;;0.30;0.30;;;14.60;99.90;;;;;;4830174;29;20042;-84
2022/10/23 11:48:54;;;;;;;0.63;0.63;;;14.60;99.90;;;;;;4844885;29;20056;-84
2022/10/23 11:51:28;;;;;;;0.95;0.57;;;14.60;99.90;;;;;;4830179;29;20053;-83
2022/10/23 11:54:05;;;;;;;0.90;0.25;;;14.60;99.90;;;;;;4830913;29;20057;-84
2022/10/23 11:56:33;;;;;;;0.22;0.22;;;14.70;99.90;;;;;;4844245;29;20045;-84
2022/10/23 11:59:16;;;;;;;0.52;0.28;;;14.70;99.90;;;;;;4844031;29;20057;-84
2022/10/23 12:01:44;;;;;;;0.22;0.15;;;14.70;99.90;;;;;;4831037;29;20519;-84
2022/10/23 12:04:12;;;;;;;1.17;0.50;;;14.70;99.90;;;;;;4843649;29;20133;-87
2022/10/23 12:07:01;;;;;;;0.28;0.28;;;14.70;99.90;;;;;;4842941;29;20401;-85
2022/10/23 12:09:39;;;;;;;0.50;0.40;;;14.70;99.90;;;;;;4830314;29;20045;-84
2022/10/23 12:12:08;;;;;;;0.30;0.30;;;14.80;99.90;;;;;;4828354;29;20140;-86
2022/10/23 12:14:51;;;;;;;0.40;0.25;;;14.80;99.90;;;;;;4827922;29;20057;-84
2022/10/23 12:17:23;;;;;;;0.25;0.25;;;14.70;99.90;;;;;;4828286;29;20057;-84
2022/10/23 12:20:00;;;;;;;0.30;0.28;;;14.80;99.90;;;;;;4845185;29;20037;-84
2022/10/23 12:22:37;;;;;;;0.28;0.20;;;14.70;99.90;;;;;;4838532;29;20061;-84
2022/10/23 12:25:11;;;;;;;0.30;0.28;;;14.70;99.90;;;;;;4828020;29;20045;-84
2022/10/23 12:27:40;;;;;;;0.32;0.30;;;14.80;99.90;;;;;;4828625;29;20061;-83
2022/10/23 12:30:22;;;;;;;0.30;0.30;;;14.80;99.90;;;;;;4827756;29;20084;-86
2022/10/23 12:33:10;;;;;;;0.30;0.30;;;14.80;99.90;;;;;;4826626;29;20060;-83
2022/10/23 12:36:14;;;;;;;1.58;0.50;;;14.90;99.90;;;;;;4842908;29;20048;-82
2022/10/23 12:38:45;;;;;;;0.88;0.85;;;14.90;99.90;;;;;;4825745;29;20068;-83
2022/10/23 12:41:17;;;;;;;0.20;0.20;;;14.90;99.90;;;;;;4842312;29;20056;-83
2022/10/23 12:43:50;;;;;;;0.38;0.20;;;14.90;99.90;;;;;;4840797;29;20092;-83
2022/10/23 12:46:32;;;;;;;0.25;0.25;;;14.90;99.90;;;;;;4857083;29;20038;-83
2022/10/23 12:49:00;;;;;;;0.20;0.20;;;14.90;99.90;;;;;;4842576;29;20053;-83
2022/10/23 12:51:34;;;;;;;0.40;0.30;;;15.00;99.90;;;;;;4841549;29;20041;-83
2022/10/23 12:54:01;;;;;;;0.20;0.20;;;15.00;99.90;;;;;;4842831;29;20045;-85
2022/10/23 12:56:32;;;;;;;;;;;15.00;99.90;;;;;;4829558;29;20061;-82
2022/10/23 12:59:00;;;;;;;0.80;0.80;;;15.00;99.90;;;;;;4828928;29;19928;-88
2022/10/23 13:01:31;;;;;;;0.20;0.20;;;15.00;99.90;;;;;;4828936;29;20052;-83
2022/10/23 13:04:06;;;;;;;0.35;0.20;;;15.00;99.90;;;;;;4828947;29;20394;-82
2022/10/23 13:06:32;;;;;;;0.10;0.10;;;15.00;99.90;;;;;;4843923;29;20049;-83
2022/10/23 13:08:58;;;;;;;0.40;0.40;;;15.00;99.90;;;;;;4844061;29;20072;-82